ENVR/VRY METAR and TAF weather

Enter ICAO airport designator
Station Type Date Time Source
ENVR METAR 2021/04/13 13:50 UTC NOAA

ENVR 131350Z 27007KT 210V320 SCT037 BKN065 04/M05 Q1017


Station Type Date Time Source
ENVR Decoded METAR 2021/04/13 13:50 UTC NOAA

Station name not available
Apr 13, 2021 - 09:50 AM EDT / 2021.04.13 1350 UTC
Wind: from the W (270 degrees) at 8 MPH (7 KT) (direction variable):0
Sky conditions: mostly cloudy
Temperature: 39 F (4 C)
Dew Point: 23 F (-5 C)
Relative Humidity: 51%
Pressure (altimeter): 30.03 in. Hg (1017 hPa)
ob: ENVR 131350Z 27007KT 210V320 SCT037 BKN065 04/M05 Q1017
cycle: 14

Station Type Date Time Source
ENVR TAF UTC NOAA

Error!

Example: see airport list